createdAt,value
2022-08-18T02:09:38.186Z,87.45
2022-08-18T02:12:08.257Z,87.48
2022-08-18T02:14:37.308Z,87.47
2022-08-18T02:17:09.207Z,87.61
2022-08-18T02:19:41.218Z,87.54
2022-08-18T02:22:12.573Z,87.46
2022-08-18T02:24:43.927Z,87.48
2022-08-18T02:27:17.395Z,87.63
2022-08-18T02:29:46.621Z,87.66
2022-08-18T02:32:16.836Z,87.95
2022-08-18T02:34:46.122Z,87.68
2022-08-18T02:37:15.692Z,87.84
2022-08-18T02:39:46.247Z,88.05
2022-08-18T02:43:55.817Z,88.01
2022-08-18T02:52:52.195Z,88.04
2022-08-18T02:55:24.325Z,88.24
2022-08-18T02:58:07.139Z,88.30
2022-08-18T03:00:35.937Z,88.53
2022-08-18T03:03:05.358Z,88.46
2022-08-18T03:05:34.338Z,88.54
2022-08-18T03:08:03.533Z,88.77
2022-08-18T03:10:38.653Z,88.89
2022-08-18T03:13:07.173Z,89.03
2022-08-18T03:15:35.720Z,89.01
2022-08-18T03:18:04.661Z,89.10
2022-08-18T03:20:35.769Z,89.23
2022-08-18T03:23:10.092Z,89.34
2022-08-18T03:25:43.171Z,88.75
2022-08-18T03:28:12.121Z,89.17
2022-08-18T03:30:40.968Z,89.23
2022-08-18T03:33:10.252Z,89.32
2022-08-18T03:35:41.044Z,89.60
2022-08-18T03:38:09.678Z,89.13
2022-08-18T03:40:38.196Z,89.19
2022-08-18T03:43:23.937Z,89.39
2022-08-18T03:45:55.780Z,89.36
2022-08-18T03:48:24.848Z,89.45
2022-08-18T03:50:53.382Z,89.57
2022-08-18T03:53:21.994Z,89.74
2022-08-18T03:55:50.551Z,90.02
2022-08-18T03:58:19.073Z,90.16
2022-08-18T04:00:47.660Z,90.18
2022-08-18T04:03:16.200Z,90.53
2022-08-18T04:05:44.903Z,90.45
2022-08-18T04:08:13.377Z,90.46
2022-08-18T04:10:44.562Z,90.46
2022-08-18T04:13:13.238Z,90.63
2022-08-18T04:15:41.891Z,90.71
2022-08-18T04:18:11.290Z,90.89
2022-08-18T04:20:59.064Z,90.81
2022-08-18T04:26:50.263Z,90.38
2022-08-18T04:29:34.447Z,90.18
2022-08-18T04:32:20.816Z,90.15
2022-08-18T04:35:16.201Z,89.90
2022-08-18T04:37:49.310Z,89.85
2022-08-18T04:40:24.349Z,90.01
2022-08-18T04:43:15.356Z,89.68
2022-08-18T04:45:47.682Z,89.56
2022-08-18T04:48:17.300Z,89.34
2022-08-18T04:50:46.798Z,89.34
2022-08-18T04:53:34.342Z,88.81
2022-08-18T04:56:05.061Z,88.26
2022-08-18T04:58:35.499Z,88.32
2022-08-18T05:01:40.625Z,88.36
2022-08-18T05:04:18.801Z,87.69
2022-08-18T05:06:48.219Z,86.98
2022-08-18T05:09:23.154Z,87.37
2022-08-18T05:11:52.680Z,86.35
2022-08-18T05:18:13.913Z,83.97
2022-08-18T05:20:45.424Z,81.92
2022-08-18T05:23:16.508Z,80.27
2022-08-18T05:25:45.191Z,77.70
2022-08-18T05:28:14.087Z,73.37
2022-08-18T05:30:43.683Z,68.93
2022-08-18T05:33:12.330Z,65.21
2022-08-18T05:35:47.645Z,63.25
2022-08-18T05:38:39.407Z,62.14
2022-08-18T05:41:14.091Z,61.32
2022-08-18T05:43:51.466Z,60.41
2022-08-18T05:46:34.901Z,60.81
2022-08-18T05:49:06.147Z,62.48
2022-08-18T05:52:18.150Z,64.01
2022-08-18T05:55:14.265Z,66.66
2022-08-18T05:57:56.763Z,68.18
2022-08-18T06:00:28.563Z,69.41
2022-08-18T06:03:10.214Z,70.35
2022-08-18T06:05:49.641Z,70.90
2022-08-18T06:08:22.004Z,71.91
2022-08-18T06:10:51.611Z,72.51
2022-08-18T06:13:21.474Z,73.15
2022-08-18T06:15:59.877Z,73.73
2022-08-18T06:18:49.565Z,74.81
2022-08-18T06:21:39.114Z,74.82
2022-08-18T06:24:15.881Z,74.83
2022-08-18T06:26:55.527Z,75.59
2022-08-18T06:29:37.567Z,75.47
2022-08-18T06:32:29.956Z,75.29
2022-08-18T06:35:10.352Z,75.31
2022-08-18T06:38:07.134Z,75.04
2022-08-18T06:40:36.202Z,75.59
2022-08-18T06:43:06.909Z,76.08
2022-08-18T06:45:40.094Z,75.88
2022-08-18T06:48:18.117Z,75.41
2022-08-18T06:50:51.936Z,74.96
2022-08-18T06:53:26.987Z,75.69
2022-08-18T06:55:56.873Z,74.06
2022-08-18T06:58:34.693Z,74.11
2022-08-18T07:01:07.604Z,73.71
2022-08-18T07:03:45.845Z,73.87
2022-08-18T07:06:29.187Z,72.97
2022-08-18T07:09:20.025Z,72.56
2022-08-18T07:12:07.409Z,72.33
2022-08-18T07:14:45.015Z,72.51
2022-08-18T07:17:21.988Z,72.79
2022-08-18T07:20:05.670Z,72.36
2022-08-18T07:22:51.925Z,72.90
2022-08-18T07:25:24.857Z,70.57
2022-08-18T07:27:56.222Z,69.25
2022-08-18T07:30:35.343Z,68.27
2022-08-18T07:33:15.157Z,68.61
2022-08-18T07:35:48.849Z,68.41
2022-08-18T07:38:42.042Z,68.01
2022-08-18T07:41:19.701Z,65.77
2022-08-18T07:44:00.223Z,67.00
2022-08-18T07:46:35.377Z,66.75
2022-08-18T07:49:06.509Z,67.25
2022-08-18T07:51:46.541Z,65.60
2022-08-18T07:57:24.992Z,66.59
2022-08-18T08:00:05.337Z,65.84
2022-08-18T08:02:55.090Z,66.48
2022-08-18T08:05:40.119Z,65.51
2022-08-18T08:08:25.417Z,64.89
2022-08-18T08:11:06.216Z,64.47
2022-08-18T08:13:55.863Z,64.78
2022-08-18T08:16:37.534Z,63.90
2022-08-18T08:19:42.658Z,63.89
2022-08-18T08:22:16.912Z,63.27
2022-08-18T08:24:59.595Z,63.58
2022-08-18T08:27:41.916Z,62.74
2022-08-18T08:30:14.189Z,62.75
2022-08-18T08:32:56.692Z,62.82
2022-08-18T08:35:48.786Z,61.34
2022-08-18T08:38:42.632Z,61.46
2022-08-18T08:41:19.457Z,61.14
2022-08-18T08:43:54.926Z,60.84
2022-08-18T08:46:29.617Z,61.34
2022-08-18T08:49:07.494Z,57.79
2022-08-18T08:51:40.081Z,56.22
2022-08-18T08:54:17.501Z,55.18
2022-08-18T08:56:50.082Z,54.26
2022-08-18T08:59:21.600Z,54.20
2022-08-18T09:02:04.866Z,54.12
2022-08-18T09:04:54.126Z,52.31
2022-08-18T09:07:54.323Z,50.75
2022-08-18T09:10:39.144Z,49.70
2022-08-18T09:13:35.431Z,49.64
2022-08-18T09:16:15.731Z,49.55
2022-08-18T09:18:59.541Z,47.80
2022-08-18T09:24:59.374Z,46.56
2022-08-18T09:28:09.828Z,45.74
2022-08-18T09:30:55.842Z,46.43
2022-08-18T09:33:33.653Z,45.14
2022-08-18T09:36:21.794Z,44.99
2022-08-18T09:39:18.557Z,45.17
2022-08-18T09:41:53.052Z,44.62
2022-08-18T09:44:58.181Z,45.04
2022-08-18T09:47:59.044Z,44.56
2022-08-18T09:50:53.733Z,44.39
2022-08-18T09:54:09.395Z,43.89
2022-08-18T09:57:19.553Z,45.25
2022-08-18T10:00:14.880Z,42.45
2022-08-18T10:03:25.790Z,44.13
2022-08-18T10:06:17.702Z,42.33
2022-08-18T10:09:18.178Z,43.01
2022-08-18T10:12:20.291Z,41.82
2022-08-18T10:15:33.093Z,41.44
2022-08-18T10:18:26.304Z,41.57
2022-08-18T10:21:07.790Z,42.97
2022-08-18T10:24:14.743Z,44.27
2022-08-18T10:27:14.577Z,42.99
2022-08-18T10:29:52.867Z,43.17
2022-08-18T10:32:52.093Z,42.55
2022-08-18T10:36:04.667Z,41.55
2022-08-18T10:41:43.466Z,41.98
2022-08-18T10:44:28.741Z,40.34
2022-08-18T10:47:00.576Z,41.30
2022-08-18T10:49:32.593Z,41.27
2022-08-18T10:52:45.261Z,41.59
2022-08-18T11:02:28.527Z,43.21
2022-08-18T11:05:14.722Z,43.05
2022-08-18T11:07:48.655Z,41.66
2022-08-18T11:11:34.296Z,38.81
2022-08-18T11:14:06.745Z,40.37
2022-08-18T11:17:31.054Z,41.19
2022-08-18T11:20:19.842Z,40.04
2022-08-18T11:22:55.283Z,40.12
2022-08-18T11:25:56.149Z,39.89
2022-08-18T11:29:00.861Z,40.24
2022-08-18T11:31:44.496Z,38.85
2022-08-18T11:34:30.871Z,41.09
2022-08-18T11:37:02.313Z,40.14
2022-08-18T11:39:55.893Z,39.26
2022-08-18T11:42:41.201Z,40.40
2022-08-18T11:45:17.387Z,39.02
2022-08-18T11:48:51.849Z,39.60
2022-08-18T11:51:40.178Z,40.02
2022-08-18T11:54:24.691Z,39.79
2022-08-18T11:57:31.480Z,39.96
2022-08-18T12:00:24.049Z,40.02
2022-08-18T12:06:31.434Z,41.64
2022-08-18T12:09:05.894Z,41.45
2022-08-18T12:11:53.703Z,41.88
2022-08-18T12:14:30.466Z,41.78
2022-08-18T12:17:01.872Z,41.67
2022-08-18T12:19:30.804Z,42.15
2022-08-18T12:22:00.463Z,41.82
2022-08-18T12:24:36.871Z,40.78
2022-08-18T12:29:58.628Z,41.46
2022-08-18T12:32:46.580Z,41.23
2022-08-18T12:35:22.136Z,42.61
2022-08-18T12:38:03.602Z,42.22
2022-08-18T12:40:42.343Z,41.85
2022-08-18T12:43:13.134Z,41.93
2022-08-18T12:45:46.007Z,43.10
2022-08-18T12:48:14.835Z,42.16
2022-08-18T12:54:04.785Z,43.20
2022-08-18T12:56:43.365Z,45.51
2022-08-18T12:59:12.137Z,43.43
2022-08-18T13:01:41.362Z,43.02
2022-08-18T13:04:15.455Z,43.31
2022-08-18T13:07:00.216Z,44.62
2022-08-18T13:09:42.819Z,45.25
2022-08-18T13:12:20.883Z,45.11
2022-08-18T13:14:50.860Z,45.75
2022-08-18T13:17:33.124Z,46.08
2022-08-18T13:20:06.017Z,45.43
2022-08-18T13:22:34.639Z,46.14
2022-08-18T13:25:06.705Z,45.91
2022-08-18T13:27:37.331Z,46.67
2022-08-18T13:30:30.081Z,46.91
2022-08-18T13:33:05.186Z,45.69
2022-08-18T13:35:52.453Z,45.60
2022-08-18T13:38:25.757Z,45.60
2022-08-18T13:40:58.115Z,43.80
2022-08-18T13:43:32.166Z,44.20
2022-08-18T13:46:01.100Z,43.81
2022-08-18T13:48:30.870Z,43.62
2022-08-18T13:51:02.014Z,44.16
2022-08-18T13:53:31.820Z,44.24
2022-08-18T13:56:00.620Z,44.59
2022-08-18T13:58:29.320Z,43.63
2022-08-18T14:03:49.997Z,43.97
2022-08-18T14:06:22.988Z,43.58
2022-08-18T14:08:53.931Z,43.16
2022-08-18T14:11:27.998Z,42.87
2022-08-18T14:14:02.198Z,43.13
2022-08-18T14:16:32.410Z,43.55
2022-08-18T14:19:22.833Z,44.42
2022-08-18T14:22:12.429Z,44.10
2022-08-18T14:25:00.716Z,44.15
2022-08-18T14:27:34.906Z,44.17
2022-08-18T14:30:07.478Z,45.09
2022-08-18T14:32:36.643Z,44.82
2022-08-18T14:35:33.598Z,45.21
2022-08-18T14:38:06.367Z,45.43
2022-08-18T14:40:41.882Z,45.74
2022-08-18T14:43:14.215Z,45.70
2022-08-18T14:45:47.307Z,45.92
2022-08-18T14:48:21.002Z,44.93
2022-08-18T14:50:55.006Z,45.44
2022-08-18T14:53:28.170Z,46.23
2022-08-18T14:55:59.227Z,45.89
2022-08-18T14:58:30.898Z,46.58
2022-08-18T15:01:08.454Z,46.36
2022-08-18T15:03:40.607Z,46.25
2022-08-18T15:06:10.108Z,47.41
2022-08-18T15:08:47.016Z,47.31
2022-08-18T15:11:16.395Z,47.05
2022-08-18T15:13:45.954Z,47.21
2022-08-18T15:16:16.131Z,48.07
2022-08-18T15:18:46.399Z,47.61
2022-08-18T15:21:38.698Z,48.11
2022-08-18T15:24:26.758Z,47.34
2022-08-18T15:26:58.071Z,47.50
2022-08-18T15:29:29.477Z,48.06
2022-08-18T15:32:05.656Z,47.77
2022-08-18T15:34:47.166Z,48.54
2022-08-18T15:37:22.296Z,47.43
2022-08-18T15:39:59.715Z,47.52
2022-08-18T15:42:29.234Z,47.96
2022-08-18T15:45:11.793Z,48.46
2022-08-18T15:47:42.548Z,48.21
2022-08-18T15:50:21.777Z,48.44
2022-08-18T15:52:57.449Z,48.70
2022-08-18T15:55:35.957Z,48.43
2022-08-18T15:58:11.008Z,48.46
2022-08-18T16:00:45.562Z,49.53
2022-08-18T16:03:16.527Z,49.01
2022-08-18T16:05:51.579Z,48.86
2022-08-18T16:08:24.790Z,49.98
2022-08-18T16:10:54.004Z,49.96
2022-08-18T16:13:24.068Z,50.07
2022-08-18T16:15:52.597Z,50.03
2022-08-18T16:18:21.860Z,50.33
2022-08-18T16:20:50.695Z,50.19
2022-08-18T16:23:21.521Z,50.54
2022-08-18T16:25:50.234Z,51.05
2022-08-18T16:28:19.004Z,50.78
2022-08-18T16:30:47.987Z,51.13
2022-08-18T16:33:16.565Z,51.27
2022-08-18T16:35:47.119Z,51.46
2022-08-18T16:38:15.669Z,51.94
2022-08-18T16:40:44.183Z,51.94
2022-08-18T16:43:14.322Z,52.52
2022-08-18T16:45:42.961Z,52.42
2022-08-18T16:48:16.323Z,52.35
2022-08-18T16:50:45.860Z,52.19
2022-08-18T16:53:14.379Z,52.47
2022-08-18T16:55:44.173Z,52.89
2022-08-18T16:58:31.514Z,53.53
2022-08-18T17:01:18.908Z,56.94
2022-08-18T17:04:14.814Z,55.22
2022-08-18T17:06:50.682Z,55.69
2022-08-18T17:09:20.591Z,56.92
2022-08-18T17:11:51.341Z,58.47
2022-08-18T17:14:21.860Z,58.06
2022-08-18T17:16:53.774Z,57.29
2022-08-18T17:19:23.434Z,57.79
2022-08-18T17:21:52.147Z,58.38
2022-08-18T17:24:31.812Z,59.45
2022-08-18T17:27:11.859Z,58.99
2022-08-18T17:30:02.925Z,60.42
2022-08-18T17:32:42.069Z,59.84
2022-08-18T17:35:14.710Z,60.23
2022-08-18T17:37:51.666Z,61.62
2022-08-18T17:40:28.470Z,61.88
2022-08-18T17:42:59.632Z,62.15
2022-08-18T17:45:35.616Z,62.02
2022-08-18T17:48:11.458Z,63.29
2022-08-18T17:51:02.389Z,63.66
2022-08-18T17:53:33.199Z,63.70
2022-08-18T17:56:07.618Z,64.13
2022-08-18T17:58:40.336Z,64.55
2022-08-18T18:01:11.410Z,64.99
2022-08-18T18:03:42.486Z,65.75
2022-08-18T18:06:18.760Z,65.98
2022-08-18T18:08:58.604Z,66.32
2022-08-18T18:11:31.584Z,66.86
2022-08-18T18:14:23.479Z,66.73
2022-08-18T18:17:06.910Z,67.17
2022-08-18T18:19:36.108Z,67.55
2022-08-18T18:22:09.789Z,67.73
2022-08-18T18:24:47.506Z,68.26
2022-08-18T18:27:27.505Z,68.39
2022-08-18T18:30:02.037Z,68.20
2022-08-18T18:32:34.772Z,68.67
2022-08-18T18:35:11.237Z,69.07
2022-08-18T18:37:49.448Z,69.48
2022-08-18T18:40:28.470Z,69.81
2022-08-18T18:42:58.442Z,69.94
2022-08-18T18:45:30.342Z,70.09
2022-08-18T18:48:06.156Z,70.30
2022-08-18T18:50:52.788Z,70.28
2022-08-18T18:53:35.633Z,70.65
2022-08-18T18:56:13.782Z,70.44
2022-08-18T18:58:55.096Z,70.86
2022-08-18T19:01:32.581Z,70.75
2022-08-18T19:04:12.004Z,71.16
2022-08-18T19:06:51.224Z,71.17
2022-08-18T19:09:27.640Z,71.35
2022-08-18T19:12:08.361Z,71.53
2022-08-18T19:14:41.859Z,71.61
2022-08-18T19:17:18.249Z,71.59
2022-08-18T19:19:50.993Z,71.61
2022-08-18T19:22:24.161Z,71.83
2022-08-18T19:24:59.655Z,72.12
2022-08-18T19:27:35.144Z,72.33
2022-08-18T19:30:11.882Z,72.50
2022-08-18T19:32:44.290Z,73.00
2022-08-18T19:35:19.518Z,73.21
2022-08-18T19:38:14.002Z,73.26
2022-08-18T19:40:46.488Z,70.82
2022-08-18T19:43:27.031Z,73.37
2022-08-18T19:46:05.554Z,73.91
2022-08-18T19:48:43.728Z,73.89
2022-08-18T19:51:19.213Z,74.46
2022-08-18T19:54:05.186Z,74.69
2022-08-18T19:56:52.608Z,74.62
2022-08-18T19:59:45.459Z,75.21
2022-08-18T20:02:32.287Z,75.34
2022-08-18T20:05:15.412Z,75.40
2022-08-18T20:08:14.756Z,75.38
2022-08-18T20:11:07.549Z,75.22
2022-08-18T20:13:43.113Z,75.05
2022-08-18T20:16:35.572Z,75.20
2022-08-18T20:19:43.268Z,75.38
2022-08-18T20:22:28.052Z,75.11
2022-08-18T20:25:05.763Z,75.04
2022-08-18T20:27:38.430Z,74.96
2022-08-18T20:30:32.481Z,75.02
2022-08-18T20:33:30.902Z,74.61
2022-08-18T20:36:17.088Z,75.06
2022-08-18T20:38:47.763Z,75.21
2022-08-18T20:41:32.810Z,75.28
2022-08-18T20:44:29.423Z,75.78
2022-08-18T20:47:11.208Z,75.44
2022-08-18T20:49:49.764Z,75.34
2022-08-18T20:52:29.561Z,75.55
2022-08-18T20:55:11.603Z,75.90
2022-08-18T20:57:42.952Z,75.81
2022-08-18T21:00:16.283Z,75.59
2022-08-18T21:02:58.354Z,75.44
2022-08-18T21:05:32.645Z,75.58
2022-08-18T21:08:07.096Z,75.47
2022-08-18T21:10:35.629Z,75.82
2022-08-18T21:13:05.454Z,75.50
2022-08-18T21:15:37.755Z,75.90
2022-08-18T21:18:15.559Z,75.79
2022-08-18T21:20:46.516Z,75.98
2022-08-18T21:23:21.806Z,76.23
2022-08-18T21:25:53.483Z,76.31
2022-08-18T21:28:25.351Z,76.41
2022-08-18T21:31:41.927Z,76.52
2022-08-18T21:33:51.997Z,76.56
2022-08-18T21:36:22.816Z,76.51
2022-08-18T21:39:06.222Z,76.76
2022-08-18T21:41:39.673Z,75.08
2022-08-18T21:44:14.500Z,76.39
2022-08-18T21:46:45.524Z,76.64
2022-08-18T21:49:24.555Z,76.43
2022-08-18T21:51:53.262Z,76.61
2022-08-18T21:54:28.000Z,76.48
2022-08-18T21:57:19.113Z,76.47
2022-08-18T22:00:18.071Z,76.63
2022-08-18T22:02:51.420Z,76.08
2022-08-18T22:05:58.752Z,76.07
2022-08-18T22:08:23.409Z,76.09
2022-08-18T22:11:57.234Z,76.03
2022-08-18T22:14:28.950Z,74.92
2022-08-18T22:17:30.860Z,76.23
2022-08-18T22:20:33.812Z,76.37
2022-08-18T22:23:26.269Z,76.94
2022-08-18T22:26:06.810Z,76.78
2022-08-18T22:28:41.544Z,76.69
2022-08-18T22:31:10.398Z,76.97
2022-08-18T22:33:39.003Z,76.71
2022-08-18T22:36:08.950Z,77.06
2022-08-18T22:38:37.515Z,76.99
2022-08-18T22:41:06.102Z,77.02
2022-08-18T22:43:36.962Z,77.14
2022-08-18T22:46:06.190Z,77.38
2022-08-18T22:48:34.925Z,77.18
2022-08-18T22:51:04.092Z,77.49
2022-08-18T22:53:46.041Z,77.45
2022-08-18T22:56:14.649Z,77.40
2022-08-18T22:58:51.346Z,77.48
2022-08-18T23:01:20.606Z,77.51
2022-08-18T23:03:49.167Z,77.72
2022-08-18T23:06:18.077Z,77.69
2022-08-18T23:08:54.716Z,77.89
2022-08-18T23:11:25.431Z,77.59
2022-08-18T23:13:54.375Z,77.68
2022-08-18T23:16:31.168Z,78.16
2022-08-18T23:19:02.219Z,78.13
2022-08-18T23:21:35.038Z,78.45
2022-08-18T23:24:07.411Z,78.39
2022-08-18T23:26:36.156Z,78.64
2022-08-18T23:29:11.233Z,78.83
2022-08-18T23:31:47.097Z,78.45
2022-08-18T23:34:22.986Z,78.81
2022-08-18T23:37:00.746Z,78.88
2022-08-18T23:39:33.795Z,78.77
2022-08-18T23:42:03.855Z,79.08
2022-08-18T23:44:34.146Z,79.31
2022-08-18T23:47:06.481Z,79.55
2022-08-18T23:49:37.961Z,79.73
2022-08-18T23:52:09.064Z,79.86
2022-08-18T23:54:40.182Z,80.05
2022-08-18T23:57:14.729Z,80.02
2022-08-18T23:59:44.862Z,80.13
